Time;durP1;ratioP1;P1;durP2;ratioP2;P2;SDS_P1;SDS_P2;PMS_P1;PMS_P2;Temp;Humidity;BMP_temperature;BMP_pressure;BME280_temperature;BME280_humidity;BME280_pressure;Samples;Min_cycle;Max_cycle;Signal;HPM_P1;HPM_P2
2023/12/26 00:00:16;;;;;;;;;4.25;1.75;;;;;;;;5024624;28;46230;-75
2023/12/26 00:02:41;;;;;;;;;4.00;2.00;;;;;;;;5031718;28;45206;-75
2023/12/26 00:05:07;;;;;;;;;3.00;3.00;;;;;;;;5026619;28;45353;-75
2023/12/26 00:07:32;;;;;;;;;5.00;2.00;;;;;;;;5033476;28;45174;-75
2023/12/26 00:09:57;;;;;;;;;3.00;2.00;;;;;;;;5030703;28;45433;-75
2023/12/26 00:12:24;;;;;;;;;2.00;2.00;;;;;;;;5031036;28;45387;-74
2023/12/26 00:14:50;;;;;;;;;5.33;2.00;;;;;;;;5032478;28;45355;-75
2023/12/26 00:17:15;;;;;;;;;3.00;2.00;;;;;;;;5031125;28;45329;-74
2023/12/26 00:19:40;;;;;;;;;3.33;1.67;;;;;;;;5032785;28;46711;-74
2023/12/26 00:22:06;;;;;;;;;4.00;2.00;;;;;;;;5032294;28;45418;-74
2023/12/26 00:24:31;;;;;;;;;3.00;2.00;;;;;;;;5033121;28;45419;-74
2023/12/26 00:26:57;;;;;;;;;4.67;3.00;;;;;;;;5033366;28;45253;-74
2023/12/26 00:29:24;;;;;;;;;3.00;2.00;;;;;;;;5032565;28;45367;-74
2023/12/26 00:31:49;;;;;;;;;4.00;3.00;;;;;;;;5034366;28;45224;-74
2023/12/26 00:34:14;;;;;;;;;3.00;3.00;;;;;;;;5036977;28;45454;-74
2023/12/26 00:36:39;;;;;;;;;4.67;2.67;;;;;;;;5035235;28;45457;-74
2023/12/26 00:39:05;;;;;;;;;5.00;1.67;;;;;;;;5032373;28;45331;-74
2023/12/26 00:41:30;;;;;;;;;2.67;2.00;;;;;;;;5041925;28;45324;-74
2023/12/26 00:43:56;;;;;;;;;1.33;1.33;;;;;;;;5033985;28;45403;-75
2023/12/26 00:46:21;;;;;;;;;5.33;1.33;;;;;;;;5030200;28;45541;-75
2023/12/26 00:48:46;;;;;;;;;2.67;1.00;;;;;;;;5033390;28;45292;-74
2023/12/26 00:51:11;;;;;;;;;6.00;1.00;;;;;;;;5037250;28;45468;-75
2023/12/26 00:53:37;;;;;;;;;3.67;3.33;;;;;;;;5036916;28;44788;-74
2023/12/26 00:56:02;;;;;;;;;4.00;3.00;;;;;;;;5031047;28;45376;-74
2023/12/26 00:58:28;;;;;;;;;5.00;1.00;;;;;;;;5035398;28;46671;-74
2023/12/26 01:00:53;;;;;;;;;5.00;3.00;;;;;;;;5020793;28;45245;-74
2023/12/26 01:03:22;;;;;;;;;2.67;2.00;;;;;;;;5035012;28;45472;-74
2023/12/26 01:05:47;;;;;;;;;1.67;1.00;;;;;;;;5022188;28;46140;-74
2023/12/26 01:08:12;;;;;;;;;2.33;1.00;;;;;;;;5034255;28;47378;-74
2023/12/26 01:10:37;;;;;;;;;1.00;1.00;;;;;;;;5027083;28;45293;-74
2023/12/26 01:13:03;;;;;;;;;5.00;3.00;;;;;;;;5034122;28;46378;-74
2023/12/26 01:15:28;;;;;;;;;4.00;2.00;;;;;;;;5032114;28;46727;-74
2023/12/26 01:17:54;;;;;;;;;3.00;2.00;;;;;;;;5035342;28;46407;-74
2023/12/26 01:20:19;;;;;;;;;3.00;0.67;;;;;;;;5029581;28;45267;-74
2023/12/26 01:22:44;;;;;;;;;4.67;1.00;;;;;;;;5035882;28;45463;-74
2023/12/26 01:25:09;;;;;;;;;2.00;2.00;;;;;;;;5030242;28;45407;-74
2023/12/26 01:27:35;;;;;;;;;3.00;2.00;;;;;;;;5034952;28;45495;-74
2023/12/26 01:30:02;;;;;;;;;5.00;1.00;;;;;;;;5031773;28;45437;-74
2023/12/26 01:32:27;;;;;;;;;4.00;2.00;;;;;;;;5035839;28;45466;-74
2023/12/26 01:34:53;;;;;;;;;3.00;2.00;;;;;;;;5033901;28;45334;-75
2023/12/26 01:37:18;;;;;;;;;4.00;1.67;;;;;;;;5035320;28;45641;-74
2023/12/26 01:39:43;;;;;;;;;2.00;2.00;;;;;;;;5027769;28;45408;-74
2023/12/26 01:42:08;;;;;;;;;1.67;1.00;;;;;;;;5033617;28;45232;-74
2023/12/26 01:44:33;;;;;;;;;1.00;1.00;;;;;;;;5029716;28;45397;-74
2023/12/26 01:46:59;;;;;;;;;2.00;2.00;;;;;;;;5034492;28;46196;-74
2023/12/26 01:49:24;;;;;;;;;1.00;1.00;;;;;;;;5031705;28;45346;-74
2023/12/26 01:51:51;;;;;;;;;6.00;3.00;;;;;;;;5034347;28;45546;-74
2023/12/26 01:54:17;;;;;;;;;4.33;2.00;;;;;;;;5032397;28;45328;-75
2023/12/26 01:56:42;;;;;;;;;4.00;1.67;;;;;;;;5048343;28;47521;-74
2023/12/26 01:59:08;;;;;;;;;3.33;1.00;;;;;;;;5028076;28;45336;-74
2023/12/26 02:01:34;;;;;;;;;2.50;2.00;;;;;;;;5037439;28;45581;-74
2023/12/26 02:03:59;;;;;;;;;2.00;2.00;;;;;;;;5028389;28;44867;-75
2023/12/26 02:06:24;;;;;;;;;5.00;3.00;;;;;;;;5038097;28;45287;-74
2023/12/26 02:08:50;;;;;;;;;4.00;2.67;;;;;;;;5034627;28;45290;-74
2023/12/26 02:11:15;;;;;;;;;4.00;1.33;;;;;;;;5036920;28;45197;-74
2023/12/26 02:13:40;;;;;;;;;4.00;2.33;;;;;;;;5034182;28;45465;-74
2023/12/26 02:16:15;;;;;;;;;4.00;2.00;;;;;;;;5038319;28;47192;-74
2023/12/26 02:18:41;;;;;;;;;4.00;1.67;;;;;;;;5034517;28;45343;-75
2023/12/26 02:21:06;;;;;;;;;6.00;2.67;;;;;;;;5033320;28;45277;-73
2023/12/26 02:23:33;;;;;;;;;1.67;1.00;;;;;;;;5037841;28;45256;-73
2023/12/26 02:25:58;;;;;;;;;4.33;2.67;;;;;;;;5031365;28;47039;-74
2023/12/26 02:28:24;;;;;;;;;7.67;2.67;;;;;;;;5038368;28;45347;-73
2023/12/26 02:30:51;;;;;;;;;5.00;2.00;;;;;;;;5031439;28;45388;-73
2023/12/26 02:33:16;;;;;;;;;1.33;1.00;;;;;;;;5039407;28;45344;-73
2023/12/26 02:35:42;;;;;;;;;1.00;1.00;;;;;;;;5034274;28;45716;-73
2023/12/26 02:38:07;;;;;;;;;4.00;0.33;;;;;;;;5039669;28;45243;-73
2023/12/26 02:40:32;;;;;;;;;5.67;1.00;;;;;;;;5035379;28;45341;-73
2023/12/26 02:42:58;;;;;;;;;1.67;0.33;;;;;;;;5039409;28;45153;-73
2023/12/26 02:45:23;;;;;;;;;2.33;1.33;;;;;;;;5038940;28;45358;-73
2023/12/26 02:47:48;;;;;;;;;2.00;1.00;;;;;;;;5040584;28;45212;-73
2023/12/26 02:50:13;;;;;;;;;4.00;3.00;;;;;;;;5035533;28;45561;-73
2023/12/26 02:52:39;;;;;;;;;3.00;2.00;;;;;;;;5040523;28;45149;-73
2023/12/26 02:55:05;;;;;;;;;3.00;3.00;;;;;;;;5036137;28;45550;-73
2023/12/26 02:57:30;;;;;;;;;2.33;1.67;;;;;;;;5039761;28;45269;-73
2023/12/26 02:59:55;;;;;;;;;2.33;0.00;;;;;;;;5034683;28;45518;-73
2023/12/26 03:02:20;;;;;;;;;4.67;2.00;;;;;;;;5034543;28;45193;-74
2023/12/26 03:04:46;;;;;;;;;0.67;0.67;;;;;;;;5037187;28;45411;-73
2023/12/26 03:07:11;;;;;;;;;4.00;1.67;;;;;;;;5040254;28;45323;-74
2023/12/26 03:09:36;;;;;;;;;2.33;1.33;;;;;;;;5031432;28;45196;-74
2023/12/26 03:12:01;;;;;;;;;4.00;1.00;;;;;;;;5038005;28;45292;-73
2023/12/26 03:14:26;;;;;;;;;3.00;2.00;;;;;;;;5033621;28;45606;-73
2023/12/26 03:16:51;;;;;;;;;2.67;1.33;;;;;;;;5040312;28;45299;-73
2023/12/26 03:19:17;;;;;;;;;4.00;1.67;;;;;;;;5033108;28;45246;-73
2023/12/26 03:21:42;;;;;;;;;4.33;2.00;;;;;;;;5040367;28;45203;-73
2023/12/26 03:24:07;;;;;;;;;3.67;1.00;;;;;;;;5036828;28;45372;-74
2023/12/26 03:26:32;;;;;;;;;4.33;2.00;;;;;;;;5039923;28;45457;-74
2023/12/26 03:28:58;;;;;;;;;5.33;2.00;;;;;;;;5034253;28;45548;-74
2023/12/26 03:31:23;;;;;;;;;4.00;1.33;;;;;;;;5040144;28;45607;-74
2023/12/26 03:33:48;;;;;;;;;2.00;1.00;;;;;;;;5035493;28;46625;-74
2023/12/26 03:36:13;;;;;;;;;3.00;2.00;;;;;;;;5037455;28;45669;-73
2023/12/26 03:38:39;;;;;;;;;3.00;1.00;;;;;;;;5036950;28;45314;-74
2023/12/26 03:41:04;;;;;;;;;2.00;2.00;;;;;;;;5038326;28;45359;-74
2023/12/26 03:43:29;;;;;;;;;4.00;2.00;;;;;;;;5037193;28;45415;-73
2023/12/26 03:45:54;;;;;;;;;4.33;1.67;;;;;;;;5038949;28;45346;-74
2023/12/26 03:48:20;;;;;;;;;2.00;2.00;;;;;;;;5035762;28;45430;-74
2023/12/26 03:50:45;;;;;;;;;4.67;4.00;;;;;;;;5035286;28;45522;-74
2023/12/26 03:53:10;;;;;;;;;3.67;1.33;;;;;;;;5036492;28;47033;-74
2023/12/26 03:55:36;;;;;;;;;1.00;1.00;;;;;;;;5032267;28;45363;-74
2023/12/26 03:58:01;;;;;;;;;1.33;1.33;;;;;;;;5036875;28;45339;-74
2023/12/26 04:00:28;;;;;;;;;1.00;1.00;;;;;;;;5033361;28;46408;-74
2023/12/26 04:02:53;;;;;;;;;3.00;3.00;;;;;;;;5037473;28;47656;-74
2023/12/26 04:05:18;;;;;;;;;6.00;2.00;;;;;;;;5028826;28;45339;-74
2023/12/26 04:07:43;;;;;;;;;1.33;1.33;;;;;;;;5039572;28;45216;-74
2023/12/26 04:10:09;;;;;;;;;4.67;1.33;;;;;;;;5036548;28;46792;-74
2023/12/26 04:12:34;;;;;;;;;1.00;1.00;;;;;;;;5039566;28;45358;-74
2023/12/26 04:15:00;;;;;;;;;1.33;1.00;;;;;;;;5031550;28;45531;-74
2023/12/26 04:17:25;;;;;;;;;5.00;2.00;;;;;;;;5039552;28;45443;-74
2023/12/26 04:19:50;;;;;;;;;2.67;2.00;;;;;;;;5033370;28;45375;-74
2023/12/26 04:22:15;;;;;;;;;3.00;2.00;;;;;;;;5038819;28;45204;-74
2023/12/26 04:24:40;;;;;;;;;2.00;2.00;;;;;;;;5035532;28;45213;-74
2023/12/26 04:27:06;;;;;;;;;4.00;2.00;;;;;;;;5042356;28;45267;-74
2023/12/26 04:29:31;;;;;;;;;5.00;2.00;;;;;;;;5036936;28;45899;-74
2023/12/26 04:31:57;;;;;;;;;3.00;2.33;;;;;;;;5037825;28;46948;-74
2023/12/26 04:34:22;;;;;;;;;2.33;2.33;;;;;;;;5038275;28;45304;-74
2023/12/26 04:36:47;;;;;;;;;2.67;1.00;;;;;;;;5036059;28;44690;-74
2023/12/26 04:39:12;;;;;;;;;8.00;1.00;;;;;;;;5034850;28;45367;-74
2023/12/26 04:41:38;;;;;;;;;4.00;1.33;;;;;;;;5036521;28;46425;-75
2023/12/26 04:44:03;;;;;;;;;3.67;3.33;;;;;;;;5034103;28;45472;-74
2023/12/26 04:46:28;;;;;;;;;6.67;2.00;;;;;;;;5030460;28;45489;-74
2023/12/26 04:48:53;;;;;;;;;3.00;2.00;;;;;;;;5036844;28;45356;-74
2023/12/26 04:51:19;;;;;;;;;3.67;2.00;;;;;;;;5037696;28;47321;-74
2023/12/26 04:53:45;;;;;;;;;6.67;2.00;;;;;;;;5036770;28;45470;-73
2023/12/26 04:56:14;;;;;;;;;3.33;2.00;;;;;;;;5030972;28;45343;-73
2023/12/26 04:58:40;;;;;;;;;4.67;1.67;;;;;;;;5036444;28;45513;-73
2023/12/26 05:01:05;;;;;;;;;5.00;2.00;;;;;;;;5032586;28;45167;-74
2023/12/26 05:03:30;;;;;;;;;4.00;2.33;;;;;;;;5035009;28;44757;-74
2023/12/26 05:05:55;;;;;;;;;3.33;2.33;;;;;;;;5023857;28;45300;-74
2023/12/26 05:08:20;;;;;;;;;5.00;1.00;;;;;;;;5036548;28;45372;-74
2023/12/26 05:10:45;;;;;;;;;2.00;2.00;;;;;;;;5025631;28;46511;-74
2023/12/26 05:13:11;;;;;;;;;5.00;2.00;;;;;;;;5035319;28;45540;-74
2023/12/26 05:15:36;;;;;;;;;3.67;1.33;;;;;;;;5034302;28;45276;-74
2023/12/26 05:18:03;;;;;;;;;2.00;2.00;;;;;;;;5058772;28;45433;-75
2023/12/26 05:20:29;;;;;;;;;6.00;3.00;;;;;;;;5027122;28;46331;-73
2023/12/26 05:22:54;;;;;;;;;3.00;2.00;;;;;;;;5044735;28;46149;-73
2023/12/26 05:25:19;;;;;;;;;3.33;2.00;;;;;;;;5035794;28;45323;-72
2023/12/26 05:27:44;;;;;;;;;4.00;1.00;;;;;;;;5036764;28;45749;-73
2023/12/26 05:30:10;;;;;;;;;2.67;2.33;;;;;;;;5030429;28;45456;-73
2023/12/26 05:32:35;;;;;;;;;2.00;2.00;;;;;;;;5038125;28;45363;-72
2023/12/26 05:35:00;;;;;;;;;4.00;3.00;;;;;;;;5034468;28;45291;-71
2023/12/26 05:37:25;;;;;;;;;6.33;2.00;;;;;;;;5039243;28;45605;-74
2023/12/26 05:39:51;;;;;;;;;3.33;2.00;;;;;;;;5038211;28;45969;-73
2023/12/26 05:42:16;;;;;;;;;4.00;3.00;;;;;;;;5039945;28;45301;-73
2023/12/26 05:44:41;;;;;;;;;4.00;2.00;;;;;;;;5039498;28;45509;-75
2023/12/26 05:47:06;;;;;;;;;4.33;2.00;;;;;;;;5041752;28;45494;-73
2023/12/26 05:49:31;;;;;;;;;2.00;2.00;;;;;;;;5034596;28;45349;-75
2023/12/26 05:51:57;;;;;;;;;2.00;2.00;;;;;;;;5038577;28;45180;-74
2023/12/26 05:54:22;;;;;;;;;2.33;2.33;;;;;;;;5031918;28;45293;-73
2023/12/26 05:56:47;;;;;;;;;5.67;2.67;;;;;;;;5040735;28;46766;-74
2023/12/26 05:59:12;;;;;;;;;7.00;2.00;;;;;;;;5032940;28;45488;-73
2023/12/26 06:01:38;;;;;;;;;5.00;2.33;;;;;;;;5038930;28;45475;-72
2023/12/26 06:04:03;;;;;;;;;4.00;2.00;;;;;;;;5034752;28;45381;-74
2023/12/26 06:06:28;;;;;;;;;3.00;2.00;;;;;;;;5030376;28;45205;-74
2023/12/26 06:08:53;;;;;;;;;4.00;2.00;;;;;;;;5035750;28;45567;-74
2023/12/26 06:11:19;;;;;;;;;3.00;2.00;;;;;;;;5044757;28;45271;-74
2023/12/26 06:13:44;;;;;;;;;4.67;2.00;;;;;;;;5034987;28;45312;-74
2023/12/26 06:16:09;;;;;;;;;2.33;1.33;;;;;;;;5032018;28;45209;-74
2023/12/26 06:18:35;;;;;;;;;5.00;1.00;;;;;;;;5037452;28;47415;-73
2023/12/26 06:21:00;;;;;;;;;4.33;2.00;;;;;;;;5031982;28;45224;-75
2023/12/26 06:23:26;;;;;;;;;2.33;2.00;;;;;;;;5039258;28;45424;-75
2023/12/26 06:25:52;;;;;;;;;1.00;1.00;;;;;;;;5034132;28;45693;-76
2023/12/26 06:28:17;;;;;;;;;2.33;1.67;;;;;;;;5039094;28;46138;-76
2023/12/26 06:30:43;;;;;;;;;3.00;1.00;;;;;;;;5024786;28;45375;-75
2023/12/26 06:33:08;;;;;;;;;3.00;2.00;;;;;;;;5039704;28;45328;-75
2023/12/26 06:35:33;;;;;;;;;5.00;2.00;;;;;;;;5036111;28;45336;-77
2023/12/26 06:37:59;;;;;;;;;3.00;3.00;;;;;;;;5038866;28;47042;-75
2023/12/26 06:40:24;;;;;;;;;1.67;1.00;;;;;;;;5037252;28;44781;-77
2023/12/26 06:42:49;;;;;;;;;3.67;1.67;;;;;;;;5042034;28;44676;-77
2023/12/26 06:45:14;;;;;;;;;3.33;1.00;;;;;;;;5036240;28;45240;-76
2023/12/26 06:47:40;;;;;;;;;5.33;4.00;;;;;;;;5038049;28;46983;-76
2023/12/26 06:50:05;;;;;;;;;4.33;4.00;;;;;;;;5034939;28;45380;-76
2023/12/26 06:52:30;;;;;;;;;7.00;3.00;;;;;;;;5044248;28;45319;-75
2023/12/26 06:54:56;;;;;;;;;3.00;3.00;;;;;;;;5040537;28;45432;-76
2023/12/26 06:57:21;;;;;;;;;5.00;2.67;;;;;;;;5043120;28;45631;-76
2023/12/26 06:59:48;;;;;;;;;5.00;3.00;;;;;;;;5039970;28;45319;-77
2023/12/26 07:02:14;;;;;;;;;1.67;1.00;;;;;;;;5042679;28;45444;-76
2023/12/26 07:04:42;;;;;;;;;1.00;1.00;;;;;;;;5040868;28;45308;-76
2023/12/26 07:07:07;;;;;;;;;2.00;1.33;;;;;;;;5038880;28;46966;-75
2023/12/26 07:09:33;;;;;;;;;2.67;2.67;;;;;;;;5040382;28;45213;-75
2023/12/26 07:11:58;;;;;;;;;5.00;2.00;;;;;;;;5035279;28;45272;-76
2023/12/26 07:14:23;;;;;;;;;6.00;2.00;;;;;;;;5040219;28;45310;-75
2023/12/26 07:16:48;;;;;;;;;3.00;1.00;;;;;;;;5046623;28;45930;-76
2023/12/26 07:19:13;;;;;;;;;5.67;3.33;;;;;;;;5042499;28;45506;-76
2023/12/26 07:21:39;;;;;;;;;4.00;3.00;;;;;;;;5039652;28;45338;-75
2023/12/26 07:24:04;;;;;;;;;2.00;1.00;;;;;;;;5045420;28;45219;-75
2023/12/26 07:26:29;;;;;;;;;2.00;2.00;;;;;;;;5038775;28;45437;-76
2023/12/26 07:28:54;;;;;;;;;3.00;1.00;;;;;;;;5041358;28;45341;-76
2023/12/26 07:31:20;;;;;;;;;5.67;2.00;;;;;;;;5037532;28;45251;-76
2023/12/26 07:33:46;;;;;;;;;3.00;2.00;;;;;;;;5028747;28;45313;-75
2023/12/26 07:36:12;;;;;;;;;1.00;1.00;;;;;;;;5038321;28;46133;-76
2023/12/26 07:38:37;;;;;;;;;3.67;2.00;;;;;;;;5040440;28;45311;-76
2023/12/26 07:41:02;;;;;;;;;2.67;2.67;;;;;;;;5041166;28;45460;-76
2023/12/26 07:43:27;;;;;;;;;4.67;3.00;;;;;;;;5037856;28;45369;-76
2023/12/26 07:45:52;;;;;;;;;2.00;2.00;;;;;;;;5036804;28;45539;-76
2023/12/26 07:48:17;;;;;;;;;1.33;1.33;;;;;;;;5038686;28;45372;-75
2023/12/26 07:50:43;;;;;;;;;3.00;1.00;;;;;;;;5036730;28;45431;-76
2023/12/26 07:53:08;;;;;;;;;3.67;1.67;;;;;;;;5038569;28;45654;-76
2023/12/26 07:55:33;;;;;;;;;4.00;4.00;;;;;;;;5037422;28;46363;-75
2023/12/26 07:57:58;;;;;;;;;3.00;3.00;;;;;;;;5036852;28;45228;-76
2023/12/26 08:00:24;;;;;;;;;1.33;1.33;;;;;;;;5033536;28;45427;-75
2023/12/26 08:02:49;;;;;;;;;3.33;2.00;;;;;;;;5035946;28;45108;-76
2023/12/26 08:05:14;;;;;;;;;3.00;2.00;;;;;;;;5029438;28;48642;-76
2023/12/26 08:07:39;;;;;;;;;2.67;1.67;;;;;;;;5037073;28;45255;-75
2023/12/26 08:10:05;;;;;;;;;5.00;2.00;;;;;;;;5030050;28;45442;-75
2023/12/26 08:12:30;;;;;;;;;3.00;2.33;;;;;;;;5044146;28;45288;-75
2023/12/26 08:14:55;;;;;;;;;3.33;1.00;;;;;;;;5039146;28;45390;-76
2023/12/26 08:17:20;;;;;;;;;4.33;2.33;;;;;;;;5048518;28;45350;-76
2023/12/26 08:19:45;;;;;;;;;4.00;2.00;;;;;;;;5042303;28;45364;-75
2023/12/26 08:22:11;;;;;;;;;2.00;2.00;;;;;;;;5047268;28;45470;-76
2023/12/26 08:24:36;;;;;;;;;4.33;2.00;;;;;;;;5037381;28;47224;-76
2023/12/26 08:27:01;;;;;;;;;7.00;3.00;;;;;;;;5041384;28;45259;-75
2023/12/26 08:29:26;;;;;;;;;2.00;2.00;;;;;;;;5039553;28;45259;-75
2023/12/26 08:31:51;;;;;;;;;4.00;2.67;;;;;;;;5038877;28;46265;-76
2023/12/26 08:34:17;;;;;;;;;2.00;2.00;;;;;;;;5037328;28;45454;-75
2023/12/26 08:36:42;;;;;;;;;4.33;2.00;;;;;;;;5040321;28;45207;-75
2023/12/26 08:39:07;;;;;;;;;6.33;1.67;;;;;;;;5036371;28;45324;-76
2023/12/26 08:41:32;;;;;;;;;5.00;3.00;;;;;;;;5040540;28;45856;-76
2023/12/26 08:43:57;;;;;;;;;2.33;1.67;;;;;;;;5036713;28;45566;-76
2023/12/26 08:46:22;;;;;;;;;1.00;0.00;;;;;;;;5042412;28;45454;-75
2023/12/26 08:48:48;;;;;;;;;3.00;2.00;;;;;;;;5039577;28;45216;-76
2023/12/26 08:51:13;;;;;;;;;2.67;1.00;;;;;;;;5040634;28;45192;-75
2023/12/26 08:53:38;;;;;;;;;4.33;1.00;;;;;;;;5041023;28;46561;-75
2023/12/26 08:56:03;;;;;;;;;1.00;1.00;;;;;;;;5033636;28;45286;-75
2023/12/26 08:58:31;;;;;;;;;3.33;2.00;;;;;;;;5042748;28;45239;-75
2023/12/26 09:00:57;;;;;;;;;1.67;1.67;;;;;;;;5039425;28;45362;-76
2023/12/26 09:03:22;;;;;;;;;3.00;3.00;;;;;;;;5042356;28;46212;-75
2023/12/26 09:05:47;;;;;;;;;1.33;1.33;;;;;;;;5033869;28;45236;-75
2023/12/26 09:08:12;;;;;;;;;4.00;2.00;;;;;;;;5039263;28;45421;-75
2023/12/26 09:10:37;;;;;;;;;5.00;2.67;;;;;;;;5032383;28;45924;-76
2023/12/26 09:13:03;;;;;;;;;6.33;5.67;;;;;;;;5055759;28;47668;-75
2023/12/26 09:15:28;;;;;;;;;4.00;2.67;;;;;;;;5035253;28;45484;-75
2023/12/26 09:17:53;;;;;;;;;2.67;2.67;;;;;;;;5043213;28;45451;-76
2023/12/26 09:20:18;;;;;;;;;2.00;2.00;;;;;;;;5035635;28;45302;-76
2023/12/26 09:22:44;;;;;;;;;2.00;2.00;;;;;;;;5040939;28;45615;-76
2023/12/26 09:25:09;;;;;;;;;2.33;1.33;;;;;;;;5028631;28;45307;-75
2023/12/26 09:27:34;;;;;;;;;3.33;3.33;;;;;;;;5037445;28;45168;-76
2023/12/26 09:29:59;;;;;;;;;2.00;2.00;;;;;;;;5027883;28;45372;-75
2023/12/26 09:32:25;;;;;;;;;1.00;1.00;;;;;;;;5032270;28;45297;-76
2023/12/26 09:34:50;;;;;;;;;3.00;1.33;;;;;;;;5041469;28;45330;-76
2023/12/26 09:37:15;;;;;;;;;0.67;0.67;;;;;;;;5032737;28;45525;-76
2023/12/26 09:39:40;;;;;;;;;4.33;2.67;;;;;;;;5031569;28;45667;-76
2023/12/26 09:42:09;;;;;;;;;5.00;2.00;;;;;;;;5041103;28;46032;-76
2023/12/26 09:44:34;;;;;;;;;2.67;2.00;;;;;;;;5031181;28;45477;-76
2023/12/26 09:47:01;;;;;;;;;1.33;1.33;;;;;;;;5061776;28;45453;-76
2023/12/26 09:49:26;;;;;;;;;1.00;1.00;;;;;;;;5035351;28;45522;-76
2023/12/26 09:51:52;;;;;;;;;3.33;2.00;;;;;;;;5045551;28;45587;-76
2023/12/26 09:54:17;;;;;;;;;1.67;1.00;;;;;;;;5034183;28;45443;-75
2023/12/26 09:56:43;;;;;;;;;2.33;1.00;;;;;;;;5044828;28;45815;-75
2023/12/26 09:59:09;;;;;;;;;3.00;1.67;;;;;;;;5029208;28;45622;-76
2023/12/26 10:01:34;;;;;;;;;5.00;2.00;;;;;;;;5037315;28;45294;-76
2023/12/26 10:04:01;;;;;;;;;5.00;2.00;;;;;;;;5038149;28;45536;-75
2023/12/26 10:06:26;;;;;;;;;2.33;1.00;;;;;;;;5034641;28;45454;-75
2023/12/26 10:08:51;;;;;;;;;1.00;1.00;;;;;;;;5031092;28;45564;-76
2023/12/26 10:11:17;;;;;;;;;7.33;2.00;;;;;;;;5038558;28;45283;-75
2023/12/26 10:13:43;;;;;;;;;2.00;2.00;;;;;;;;5034802;28;45360;-75
2023/12/26 10:16:08;;;;;;;;;1.00;1.00;;;;;;;;5029960;28;45173;-76
2023/12/26 10:18:33;;;;;;;;;2.00;2.00;;;;;;;;5027307;28;45250;-75
2023/12/26 10:20:59;;;;;;;;;1.00;1.00;;;;;;;;5043287;28;45555;-75
2023/12/26 10:23:24;;;;;;;;;3.00;2.00;;;;;;;;5054135;28;45316;-75
2023/12/26 10:25:49;;;;;;;;;2.00;2.00;;;;;;;;5044430;28;45363;-75
2023/12/26 10:28:16;;;;;;;;;2.67;1.33;;;;;;;;5048775;28;45639;-76
2023/12/26 10:30:41;;;;;;;;;2.00;2.00;;;;;;;;5033737;28;45482;-76
2023/12/26 10:33:06;;;;;;;;;3.00;2.00;;;;;;;;5059915;28;45934;-76
2023/12/26 10:35:33;;;;;;;;;0.00;0.00;;;;;;;;5039044;28;45493;-76
2023/12/26 10:37:58;;;;;;;;;3.00;1.00;;;;;;;;5040411;28;45319;-77
2023/12/26 10:40:24;;;;;;;;;2.67;1.00;;;;;;;;5033299;28;45281;-77
2023/12/26 10:42:50;;;;;;;;;1.00;1.00;;;;;;;;5039990;28;45256;-77
2023/12/26 10:45:17;;;;;;;;;4.67;3.00;;;;;;;;5035366;28;45432;-77
2023/12/26 10:47:43;;;;;;;;;2.00;2.00;;;;;;;;5041545;28;45514;-77
2023/12/26 10:50:10;;;;;;;;;2.00;1.00;;;;;;;;5035594;28;45525;-78
2023/12/26 10:52:39;;;;;;;;;1.33;1.33;;;;;;;;5041515;28;45269;-78
2023/12/26 10:55:05;;;;;;;;;3.33;2.00;;;;;;;;5037318;28;44698;-78
2023/12/26 10:57:32;;;;;;;;;3.00;2.00;;;;;;;;5041428;28;45070;-78
2023/12/26 13:51:59;;;;;;;;;4.00;3.00;;;;;;;;5034786;28;45656;-78
2023/12/26 13:54:42;;;;;;;;;4.00;2.00;;;;;;;;5036639;28;45263;-78
2023/12/26 13:57:26;;;;;;;;;3.00;2.00;;;;;;;;5033966;28;45221;-77
2023/12/26 14:00:12;;;;;;;;;3.00;3.00;;;;;;;;5037394;28;45820;-77
2023/12/26 14:02:56;;;;;;;;;2.67;2.00;;;;;;;;5030519;28;45414;-77
2023/12/26 14:05:40;;;;;;;;;3.33;2.00;;;;;;;;5035647;28;45414;-77
2023/12/26 14:08:24;;;;;;;;;2.00;2.00;;;;;;;;5042237;28;45204;-77
2023/12/26 14:11:07;;;;;;;;;3.00;3.00;;;;;;;;5038454;28;45695;-77
2023/12/26 14:13:51;;;;;;;;;3.00;3.00;;;;;;;;5037268;28;45296;-76
2023/12/26 14:16:35;;;;;;;;;6.00;6.00;;;;;;;;5054805;28;45326;-76
2023/12/26 14:19:19;;;;;;;;;4.00;4.00;;;;;;;;5038370;28;45266;-76
2023/12/26 14:22:03;;;;;;;;;4.00;2.00;;;;;;;;5044638;28;45604;-75
2023/12/26 14:24:47;;;;;;;;;5.00;4.00;;;;;;;;5031762;28;47410;-76
2023/12/26 14:27:31;;;;;;;;;5.67;4.00;;;;;;;;5036825;28;45282;-76
2023/12/26 14:30:16;;;;;;;;;4.00;2.00;;;;;;;;5025363;28;45138;-75
2023/12/26 14:33:00;;;;;;;;;4.33;2.33;;;;;;;;5037802;28;46014;-75
2023/12/26 14:35:43;;;;;;;;;3.00;3.00;;;;;;;;5027446;28;45575;-75
2023/12/26 14:38:27;;;;;;;;;2.33;2.33;;;;;;;;5029715;28;45498;-76
2023/12/26 14:41:12;;;;;;;;;4.33;2.33;;;;;;;;5030725;28;45250;-76
2023/12/26 14:43:55;;;;;;;;;2.00;2.00;;;;;;;;5038569;28;45466;-76
2023/12/26 14:46:39;;;;;;;;;3.00;1.67;;;;;;;;5032630;28;45533;-75
2023/12/26 14:49:23;;;;;;;;;2.67;2.67;;;;;;;;5033803;28;45418;-76
2023/12/26 14:52:07;;;;;;;;;1.67;1.67;;;;;;;;5025277;28;45236;-75
2023/12/26 14:54:50;;;;;;;;;1.00;1.00;;;;;;;;5031308;28;44806;-75
2023/12/26 14:57:34;;;;;;;;;4.00;4.00;;;;;;;;5029487;28;45265;-75
2023/12/26 15:00:18;;;;;;;;;6.00;4.67;;;;;;;;5029114;28;45300;-75
2023/12/26 15:02:44;;;;;;;;;5.33;5.33;;;;;;;;5032931;28;45475;-75
2023/12/26 15:05:10;;;;;;;;;4.33;4.33;;;;;;;;5040058;28;45408;-75
2023/12/26 15:07:36;;;;;;;;;3.00;3.00;;;;;;;;5048742;28;45429;-76
2023/12/26 15:10:01;;;;;;;;;4.67;4.00;;;;;;;;5051871;28;45316;-75
2023/12/26 15:12:27;;;;;;;;;7.33;6.33;;;;;;;;5040055;28;45227;-75
2023/12/26 15:14:52;;;;;;;;;5.33;3.00;;;;;;;;5034771;28;45343;-75
2023/12/26 15:17:17;;;;;;;;;5.67;5.33;;;;;;;;5065763;28;45413;-75
2023/12/26 15:19:42;;;;;;;;;6.00;6.00;;;;;;;;5034813;28;45325;-75
2023/12/26 15:22:08;;;;;;;;;6.33;6.33;;;;;;;;5038990;28;45314;-75
2023/12/26 15:24:33;;;;;;;;;7.33;5.00;;;;;;;;5034161;28;45622;-75
2023/12/26 15:26:58;;;;;;;;;6.00;5.00;;;;;;;;5034611;28;47613;-75
2023/12/26 15:29:23;;;;;;;;;5.00;5.00;;;;;;;;5035057;28;45959;-75
2023/12/26 15:31:49;;;;;;;;;4.00;4.00;;;;;;;;5031645;28;45216;-75
2023/12/26 15:34:14;;;;;;;;;4.00;4.00;;;;;;;;5034916;28;45578;-75
2023/12/26 15:36:41;;;;;;;;;5.00;4.00;;;;;;;;5027139;28;47530;-75
2023/12/26 15:39:06;;;;;;;;;5.00;5.00;;;;;;;;5034322;28;45517;-75
2023/12/26 15:41:32;;;;;;;;;11.67;8.67;;;;;;;;5031562;28;45308;-75
2023/12/26 15:43:57;;;;;;;;;11.67;11.00;;;;;;;;5037621;28;45465;-75
2023/12/26 15:46:24;;;;;;;;;13.00;11.67;;;;;;;;5031867;28;45456;-76
2023/12/26 15:48:50;;;;;;;;;13.33;12.00;;;;;;;;5035116;28;45635;-76
2023/12/26 15:51:18;;;;;;;;;17.50;15.75;;;;;;;;5021504;28;45220;-75
2023/12/26 15:53:44;;;;;;;;;18.00;17.25;;;;;;;;5035165;28;45261;-75
2023/12/26 15:56:10;;;;;;;;;21.00;20.00;;;;;;;;5022664;28;45463;-75
2023/12/26 15:58:35;;;;;;;;;20.50;14.75;;;;;;;;5033398;28;45862;-75
2023/12/26 16:01:00;;;;;;;;;20.50;19.75;;;;;;;;5028243;28;45359;-75
2023/12/26 16:03:26;;;;;;;;;22.50;16.25;;;;;;;;5050663;28;45574;-76
2023/12/26 16:05:51;;;;;;;;;22.50;19.75;;;;;;;;5034146;28;48462;-75
2023/12/26 16:08:17;;;;;;;;;17.50;17.00;;;;;;;;5037355;28;45285;-75
2023/12/26 16:10:42;;;;;;;;;15.00;10.50;;;;;;;;5036031;28;45344;-75
2023/12/26 16:13:07;;;;;;;;;19.25;17.00;;;;;;;;5038045;28;45358;-75
2023/12/26 16:15:33;;;;;;;;;11.00;11.00;;;;;;;;5028985;28;45190;-78
2023/12/26 16:17:58;;;;;;;;;11.00;10.67;;;;;;;;5037191;28;44792;-75
2023/12/26 16:20:23;;;;;;;;;18.25;16.00;;;;;;;;5030052;28;45422;-75
2023/12/26 16:22:49;;;;;;;;;22.00;19.00;;;;;;;;5036429;28;45288;-75
2023/12/26 16:25:14;;;;;;;;;20.00;18.00;;;;;;;;5030744;28;45436;-75
2023/12/26 16:27:39;;;;;;;;;21.75;21.00;;;;;;;;5035909;28;45154;-75
2023/12/26 16:30:05;;;;;;;;;5.67;5.67;;;;;;;;5034743;28;45228;-75
2023/12/26 16:32:30;;;;;;;;;3.00;2.00;;;;;;;;5036090;28;45409;-75
2023/12/26 16:34:55;;;;;;;;;4.00;3.00;;;;;;;;5035211;28;45576;-75
2023/12/26 16:37:20;;;;;;;;;2.00;2.00;;;;;;;;5044478;28;45253;-75
2023/12/26 16:39:46;;;;;;;;;3.00;3.00;;;;;;;;5036172;28;45497;-75
2023/12/26 16:42:11;;;;;;;;;5.00;4.00;;;;;;;;5045053;28;45671;-75
2023/12/26 16:44:44;;;;;;;;;5.00;5.00;;;;;;;;5036173;28;45239;-75
2023/12/26 16:47:09;;;;;;;;;6.00;6.00;;;;;;;;5045144;28;45388;-75
2023/12/26 16:49:35;;;;;;;;;8.00;6.00;;;;;;;;5043742;28;47421;-75
2023/12/26 16:52:00;;;;;;;;;4.33;4.33;;;;;;;;5046875;28;45442;-75
2023/12/26 16:54:25;;;;;;;;;6.00;4.67;;;;;;;;5039942;28;45221;-75
2023/12/26 16:56:51;;;;;;;;;2.00;2.00;;;;;;;;5033646;28;45190;-75
2023/12/26 16:59:16;;;;;;;;;4.00;4.00;;;;;;;;5032595;28;45470;-75
2023/12/26 17:01:42;;;;;;;;;4.33;3.33;;;;;;;;5051200;28;46896;-75
2023/12/26 17:04:07;;;;;;;;;4.00;4.00;;;;;;;;5042988;28;45425;-75
2023/12/26 17:06:38;;;;;;;;;4.00;4.00;;;;;;;;5037609;28;45304;-75
2023/12/26 17:09:03;;;;;;;;;5.00;4.00;;;;;;;;5040873;28;45384;-75
2023/12/26 17:11:28;;;;;;;;;4.00;4.00;;;;;;;;5039730;28;45359;-75
2023/12/26 17:13:54;;;;;;;;;7.33;5.00;;;;;;;;5041504;28;45326;-75
2023/12/26 17:16:19;;;;;;;;;5.00;5.00;;;;;;;;5037429;28;45357;-75
2023/12/26 17:18:44;;;;;;;;;4.67;4.67;;;;;;;;5043356;28;45421;-75
2023/12/26 17:21:10;;;;;;;;;8.33;6.00;;;;;;;;5038445;28;45462;-75
2023/12/26 17:23:35;;;;;;;;;6.33;6.00;;;;;;;;5047470;28;46183;-74
2023/12/26 17:26:00;;;;;;;;;10.00;7.00;;;;;;;;5041071;28;45514;-75
2023/12/26 17:28:25;;;;;;;;;7.00;6.00;;;;;;;;5047990;28;45209;-76